Time;durP1;ratioP1;P1;durP2;ratioP2;P2;SDS_P1;SDS_P2;PMS_P1;PMS_P2;Temp;Humidity;BMP_temperature;BMP_pressure;BME280_temperature;BME280_humidity;BME280_pressure;Samples;Min_cycle;Max_cycle;Signal;HPM_P1;HPM_P2
2021/10/13 00:00:09;;;;;;;9.50;4.20;;;7.30;96.50;;;;;;4987930;28;20439;-75
2021/10/13 00:02:35;;;;;;;10.43;4.10;;;7.30;96.60;;;;;;4973942;28;20919;-75
2021/10/13 00:05:01;;;;;;;9.37;3.87;;;7.30;96.70;;;;;;4972356;28;20448;-76
2021/10/13 00:07:26;;;;;;;6.10;4.47;;;7.30;96.70;;;;;;4972319;28;20447;-75
2021/10/13 00:09:52;;;;;;;13.80;4.67;;;7.30;96.60;;;;;;4971755;28;20200;-75
2021/10/13 00:12:18;;;;;;;11.23;5.77;;;7.20;96.60;;;;;;4973384;28;20168;-75
2021/10/13 00:14:44;;;;;;;10.63;4.80;;;7.20;96.60;;;;;;4973276;28;20172;-76
2021/10/13 00:17:10;;;;;;;12.40;5.00;;;7.20;96.60;;;;;;4973236;28;20169;-75
2021/10/13 00:19:35;;;;;;;8.97;3.97;;;7.20;96.50;;;;;;4972685;28;21179;-76
2021/10/13 00:22:01;;;;;;;8.20;4.93;;;7.20;96.60;;;;;;4973036;28;20416;-75
2021/10/13 00:24:28;;;;;;;8.63;5.43;;;7.20;96.50;;;;;;4973257;28;20175;-75
2021/10/13 00:26:53;;;;;;;9.70;4.43;;;7.20;96.60;;;;;;4973110;28;20179;-75
2021/10/13 00:29:20;;;;;;;9.73;4.97;;;7.20;96.60;;;;;;4987294;28;20981;-75
2021/10/13 00:31:46;;;;;;;13.60;5.10;;;7.20;96.60;;;;;;4972500;28;20172;-75
2021/10/13 00:34:11;;;;;;;7.40;4.33;;;7.20;96.50;;;;;;4988082;28;20783;-75
2021/10/13 00:36:37;;;;;;;7.83;4.23;;;7.20;96.50;;;;;;4971652;28;20420;-75
2021/10/13 00:39:03;;;;;;;5.77;4.30;;;7.20;96.60;;;;;;4987517;28;20204;-74
2021/10/13 00:41:28;;;;;;;8.90;4.80;;;7.20;97.10;;;;;;4972308;28;20251;-75
2021/10/13 00:43:54;;;;;;;10.37;4.27;;;7.10;96.80;;;;;;4973084;28;20237;-74
2021/10/13 00:46:20;;;;;;;8.47;4.47;;;7.10;96.90;;;;;;4974415;28;20235;-76
2021/10/13 00:48:45;;;;;;;11.10;4.57;;;7.10;97.00;;;;;;4979403;28;20181;-75
2021/10/13 00:51:11;;;;;;;11.93;4.60;;;7.10;97.00;;;;;;4986734;28;20698;-73
2021/10/13 00:53:36;;;;;;;9.27;4.77;;;7.10;96.90;;;;;;4984756;28;20173;-75
2021/10/13 00:56:02;;;;;;;6.30;4.67;;;7.10;96.90;;;;;;4972571;28;20171;-75
2021/10/13 00:58:28;;;;;;;9.03;4.10;;;7.10;96.80;;;;;;4972204;28;20184;-74
2021/10/13 01:01:00;;;;;;;5.43;4.00;;;7.10;96.80;;;;;;4971965;28;20179;-75
2021/10/13 01:03:31;;;;;;;15.80;4.10;;;7.10;96.70;;;;;;4972523;28;20200;-75
2021/10/13 01:06:20;;;;;;;6.03;4.10;;;7.10;97.00;;;;;;4972542;28;20439;-75
2021/10/13 01:09:12;;;;;;;6.40;3.73;;;7.10;97.00;;;;;;4943333;28;20451;-75
2021/10/13 01:11:56;;;;;;;10.53;4.17;;;7.10;96.90;;;;;;4971837;28;20416;-74
2021/10/13 01:14:49;;;;;;;15.80;4.63;;;7.00;96.90;;;;;;4972519;28;20502;-75
2021/10/13 01:17:30;;;;;;;7.63;4.27;;;7.00;96.90;;;;;;4972367;28;20431;-76
2021/10/13 01:20:29;;;;;;;11.03;4.13;;;7.00;97.00;;;;;;4971801;28;20435;-75
2021/10/13 01:23:10;;;;;;;10.70;4.60;;;7.00;96.90;;;;;;4970731;28;20426;-74
2021/10/13 01:26:18;;;;;;;6.23;4.13;;;7.00;96.90;;;;;;4972302;28;20507;-74
2021/10/13 01:28:46;;;;;;;6.30;4.37;;;7.00;96.90;;;;;;4924497;28;20444;-75
2021/10/13 01:31:26;;;;;;;7.50;3.63;;;7.00;96.80;;;;;;4971420;28;20467;-74
2021/10/13 01:33:58;;;;;;;9.13;5.10;;;7.00;96.80;;;;;;4972106;28;21009;-75
2021/10/13 01:36:27;;;;;;;7.80;4.50;;;7.00;96.70;;;;;;4972043;28;20411;-74
2021/10/13 01:38:56;;;;;;;11.73;4.40;;;6.90;96.80;;;;;;4971538;28;20443;-74
2021/10/13 01:41:25;;;;;;;7.80;3.67;;;6.90;96.80;;;;;;4971136;28;20419;-75
2021/10/13 01:43:52;;;;;;;15.17;4.43;;;6.90;96.80;;;;;;4971694;28;20416;-75
2021/10/13 01:46:21;;;;;;;6.90;4.03;;;6.90;96.80;;;;;;4971965;28;20447;-75
2021/10/13 01:48:48;;;;;;;5.50;3.87;;;6.90;96.80;;;;;;4971581;28;20444;-75
2021/10/13 01:51:15;;;;;;;8.63;4.37;;;6.80;96.70;;;;;;4971144;28;20609;-75
2021/10/13 01:53:42;;;;;;;8.80;3.90;;;6.80;96.70;;;;;;4971696;28;20416;-75
2021/10/13 01:56:10;;;;;;;12.77;3.60;;;6.80;96.60;;;;;;4971782;28;20510;-75
2021/10/13 01:58:38;;;;;;;14.90;3.83;;;6.80;96.50;;;;;;4971231;28;20415;-75
2021/10/13 02:01:06;;;;;;;8.40;3.70;;;6.70;96.60;;;;;;4969640;28;20419;-75
2021/10/13 02:03:33;;;;;;;7.10;3.60;;;6.70;96.70;;;;;;4971674;28;20423;-75
2021/10/13 02:06:03;;;;;;;15.03;4.47;;;6.70;96.70;;;;;;4971501;28;20439;-75
2021/10/13 02:08:31;;;;;;;8.03;3.90;;;6.70;96.70;;;;;;4971056;28;20407;-75
2021/10/13 02:10:59;;;;;;;10.60;3.30;;;6.70;96.70;;;;;;4969482;28;20530;-75
2021/10/13 02:13:30;;;;;;;9.33;4.17;;;6.70;96.70;;;;;;4971821;28;20419;-76
2021/10/13 02:15:58;;;;;;;6.60;4.53;;;6.70;96.70;;;;;;4969879;28;20520;-74
2021/10/13 02:18:27;;;;;;;5.10;3.47;;;6.70;96.70;;;;;;4971511;28;20420;-75
2021/10/13 02:20:55;;;;;;;5.77;3.47;;;6.70;96.70;;;;;;4974949;28;20416;-75
2021/10/13 02:23:24;;;;;;;9.37;4.67;;;6.70;96.70;;;;;;4974114;28;20404;-75
2021/10/13 02:25:52;;;;;;;11.13;4.50;;;6.70;96.80;;;;;;4975168;28;20467;-75
2021/10/13 02:28:29;;;;;;;18.27;4.43;;;6.70;96.80;;;;;;4975320;28;20510;-75
2021/10/13 02:30:54;;;;;;;7.00;4.27;;;6.70;96.80;;;;;;4974542;28;20469;-75
2021/10/13 02:33:20;;;;;;;7.73;3.97;;;6.70;96.80;;;;;;4974986;28;20416;-75
2021/10/13 02:35:45;;;;;;;5.30;4.13;;;6.70;96.80;;;;;;4975122;28;20233;-75
2021/10/13 02:38:11;;;;;;;9.53;3.97;;;6.70;96.80;;;;;;4974941;28;20231;-75
2021/10/13 02:40:37;;;;;;;14.00;3.83;;;6.60;96.60;;;;;;4974200;28;20636;-75
2021/10/13 02:43:04;;;;;;;8.63;4.60;;;6.60;96.70;;;;;;4973665;28;20187;-75
2021/10/13 02:45:36;;;;;;;8.07;4.03;;;6.60;96.70;;;;;;4974923;28;20658;-74
2021/10/13 02:48:17;;;;;;;7.30;3.50;;;6.60;96.70;;;;;;4974891;28;20423;-74
2021/10/13 02:50:56;;;;;;;11.20;4.17;;;6.60;96.70;;;;;;4972641;28;20467;-74
2021/10/13 02:53:47;;;;;;;6.80;4.20;;;6.60;96.70;;;;;;4974407;28;20412;-74
2021/10/13 02:56:48;;;;;;;7.63;4.10;;;6.60;96.70;;;;;;4974713;28;20408;-73
2021/10/13 02:59:20;;;;;;;7.83;3.67;;;6.60;96.80;;;;;;4926268;28;20957;-74
2021/10/13 03:01:46;;;;;;;7.30;4.40;;;6.60;96.70;;;;;;4973942;28;20423;-75
2021/10/13 03:04:17;;;;;;;8.30;4.07;;;6.60;96.70;;;;;;4973444;28;20443;-76
2021/10/13 03:07:14;;;;;;;9.13;3.70;;;6.60;96.70;;;;;;4973976;28;20404;-75
2021/10/13 03:09:48;;;;;;;4.73;3.27;;;6.60;96.80;;;;;;4952817;28;20483;-75
2021/10/13 03:12:15;;;;;;;11.30;3.90;;;6.70;96.90;;;;;;4974589;28;20443;-75
2021/10/13 03:14:41;;;;;;;6.93;4.43;;;6.70;96.70;;;;;;4974708;28;20404;-74
2021/10/13 03:17:08;;;;;;;6.13;3.57;;;6.80;96.60;;;;;;4975167;28;20904;-73
2021/10/13 03:19:38;;;;;;;4.30;3.10;;;6.80;96.40;;;;;;4972582;28;20203;-74
2021/10/13 03:22:05;;;;;;;8.30;3.37;;;6.80;96.30;;;;;;4973886;28;20404;-74
2021/10/13 03:24:31;;;;;;;5.50;3.87;;;6.80;96.20;;;;;;4972772;28;20434;-74
2021/10/13 03:26:57;;;;;;;6.40;3.17;;;6.80;96.10;;;;;;4974139;28;20415;-74
2021/10/13 03:29:22;;;;;;;9.10;4.40;;;6.80;96.20;;;;;;4973748;28;20442;-74
2021/10/13 03:31:48;;;;;;;5.00;3.47;;;6.80;96.30;;;;;;4973320;28;20172;-75
2021/10/13 03:34:15;;;;;;;10.53;3.40;;;6.80;96.30;;;;;;4973959;28;20370;-74
2021/10/13 03:36:46;;;;;;;6.83;3.80;;;6.70;96.20;;;;;;4973947;28;20176;-73
2021/10/13 03:39:12;;;;;;;6.83;3.73;;;6.70;96.20;;;;;;4972378;28;20451;-74
2021/10/13 03:41:39;;;;;;;6.60;3.23;;;6.60;96.20;;;;;;4973077;28;20440;-75
2021/10/13 03:44:05;;;;;;;7.07;4.20;;;6.60;96.30;;;;;;4973718;28;20404;-75
2021/10/13 03:46:32;;;;;;;7.60;3.60;;;6.60;96.30;;;;;;4973671;28;20502;-74
2021/10/13 03:48:57;;;;;;;7.30;3.13;;;6.60;96.40;;;;;;4973388;28;20428;-74
2021/10/13 03:51:23;;;;;;;6.07;4.40;;;6.60;96.30;;;;;;4971701;28;20513;-74
2021/10/13 03:53:49;;;;;;;6.17;4.00;;;6.60;96.30;;;;;;4973545;28;20180;-74
2021/10/13 03:56:16;;;;;;;7.77;4.20;;;6.50;96.30;;;;;;4973353;28;20173;-74
2021/10/13 03:58:42;;;;;;;9.53;3.90;;;6.50;96.50;;;;;;4973050;28;20416;-74
2021/10/13 04:01:08;;;;;;;7.30;4.90;;;6.50;96.50;;;;;;4972615;28;20900;-74
2021/10/13 04:03:33;;;;;;;19.50;4.60;;;6.40;96.50;;;;;;4973420;28;20506;-74
2021/10/13 04:05:59;;;;;;;9.37;5.47;;;6.50;96.70;;;;;;4973243;28;20211;-73
2021/10/13 04:08:25;;;;;;;9.53;4.07;;;6.50;96.80;;;;;;4987605;28;20219;-74
2021/10/13 04:10:50;;;;;;;10.63;4.50;;;6.50;96.80;;;;;;4972804;28;20812;-74
2021/10/13 04:13:16;;;;;;;8.30;4.90;;;6.50;96.80;;;;;;4973021;28;20176;-74
2021/10/13 04:15:42;;;;;;;11.87;4.50;;;6.50;96.80;;;;;;4974190;28;20223;-74
2021/10/13 04:18:08;;;;;;;10.13;3.90;;;6.50;96.80;;;;;;4976034;28;20160;-73
2021/10/13 04:20:34;;;;;;;7.27;4.83;;;6.60;96.70;;;;;;4981504;28;20196;-74
2021/10/13 04:22:59;;;;;;;11.33;4.70;;;6.60;96.60;;;;;;4981830;28;20468;-74
2021/10/13 04:25:25;;;;;;;9.83;4.57;;;6.60;96.60;;;;;;4972983;28;20185;-75
2021/10/13 04:27:51;;;;;;;9.10;4.53;;;6.70;96.50;;;;;;4972868;28;20168;-74
2021/10/13 04:30:17;;;;;;;9.57;5.13;;;6.80;96.50;;;;;;4969820;28;20214;-74
2021/10/13 04:32:44;;;;;;;13.63;5.20;;;6.80;96.40;;;;;;4971909;28;20926;-74
2021/10/13 04:35:10;;;;;;;9.00;5.30;;;6.80;96.40;;;;;;4987257;28;20514;-75
2021/10/13 04:37:37;;;;;;;7.30;4.70;;;6.80;96.30;;;;;;4972143;28;20440;-74
2021/10/13 04:40:07;;;;;;;9.50;4.27;;;6.80;96.30;;;;;;4971801;28;20984;-74
2021/10/13 04:42:33;;;;;;;9.60;4.83;;;6.80;96.30;;;;;;4972147;28;20428;-75
2021/10/13 04:44:59;;;;;;;16.10;4.97;;;6.80;96.30;;;;;;4972579;28;20415;-74
2021/10/13 04:47:24;;;;;;;9.50;4.73;;;6.90;96.30;;;;;;4972720;28;20426;-74
2021/10/13 04:49:51;;;;;;;12.10;5.70;;;6.90;96.30;;;;;;4971517;28;20508;-74
2021/10/13 04:52:16;;;;;;;12.73;5.20;;;7.00;96.20;;;;;;4972378;28;20189;-74
2021/10/13 04:54:42;;;;;;;11.83;6.23;;;7.00;96.20;;;;;;4972111;28;20972;-75
2021/10/13 04:57:08;;;;;;;9.07;4.70;;;7.00;96.40;;;;;;4972678;28;20554;-76
2021/10/13 04:59:33;;;;;;;9.07;4.97;;;7.00;96.20;;;;;;4972558;28;20188;-76
2021/10/13 05:01:59;;;;;;;9.00;4.80;;;7.00;96.10;;;;;;4972233;28;20914;-76
2021/10/13 05:04:25;;;;;;;8.27;5.13;;;7.00;96.10;;;;;;4972632;28;20589;-76
2021/10/13 05:06:51;;;;;;;8.77;6.23;;;7.00;96.20;;;;;;4972444;28;20586;-77
2021/10/13 05:09:17;;;;;;;7.83;5.60;;;7.00;96.30;;;;;;4971144;28;20435;-77
2021/10/13 05:11:43;;;;;;;6.70;4.57;;;7.00;96.20;;;;;;4971026;28;20420;-77
2021/10/13 05:14:10;;;;;;;11.93;5.17;;;7.10;96.20;;;;;;4970222;28;20180;-77
2021/10/13 05:16:37;;;;;;;8.50;4.90;;;7.10;96.20;;;;;;4970382;28;20555;-77
2021/10/13 05:19:03;;;;;;;9.80;5.63;;;7.10;96.20;;;;;;4970447;28;20985;-77
2021/10/13 05:21:29;;;;;;;16.20;5.63;;;7.10;96.10;;;;;;4969898;28;20435;-77
2021/10/13 05:23:55;;;;;;;9.27;4.80;;;7.10;96.20;;;;;;4972016;28;20806;-76
2021/10/13 05:26:21;;;;;;;11.43;5.40;;;7.00;96.10;;;;;;4972233;28;20424;-78
2021/10/13 05:28:46;;;;;;;7.27;5.40;;;7.00;96.30;;;;;;4971746;28;20676;-77
2021/10/13 05:31:12;;;;;;;8.50;5.50;;;7.00;96.20;;;;;;4972743;28;20200;-78
2021/10/13 05:33:37;;;;;;;10.20;5.83;;;7.00;96.20;;;;;;4973393;28;20182;-77
2021/10/13 05:36:03;;;;;;;17.23;5.80;;;7.10;96.30;;;;;;4974125;28;20161;-77
2021/10/13 05:38:29;;;;;;;14.33;6.20;;;7.10;96.20;;;;;;4972797;28;20172;-77
2021/10/13 05:40:55;;;;;;;9.73;6.00;;;7.10;96.30;;;;;;4972879;28;20412;-77
2021/10/13 05:43:22;;;;;;;8.10;5.40;;;7.20;96.30;;;;;;4955973;28;20176;-77
2021/10/13 05:45:47;;;;;;;9.93;5.23;;;7.20;96.20;;;;;;4973095;28;20416;-77
2021/10/13 05:48:14;;;;;;;10.30;6.23;;;7.20;96.20;;;;;;4976044;28;20416;-77
2021/10/13 05:50:40;;;;;;;8.93;5.40;;;7.20;96.20;;;;;;4971985;28;20463;-77
2021/10/13 05:53:06;;;;;;;8.70;5.63;;;7.20;96.20;;;;;;4970887;28;20436;-77
2021/10/13 05:55:32;;;;;;;13.73;6.23;;;7.20;96.30;;;;;;4973949;28;20781;-77
2021/10/13 05:58:02;;;;;;;8.77;4.90;;;7.20;96.40;;;;;;4977903;28;20169;-77
2021/10/13 06:00:28;;;;;;;10.70;5.10;;;7.20;96.40;;;;;;4974970;28;20191;-77
2021/10/13 06:02:54;;;;;;;12.60;5.77;;;7.30;96.40;;;;;;4973935;28;20427;-78
2021/10/13 06:05:20;;;;;;;12.53;5.23;;;7.30;96.40;;;;;;4979851;28;20423;-77
2021/10/13 06:07:45;;;;;;;9.20;5.70;;;7.40;96.40;;;;;;4974883;28;20169;-77
2021/10/13 06:10:11;;;;;;;11.37;6.03;;;7.40;96.20;;;;;;4972298;28;20211;-77
2021/10/13 06:12:37;;;;;;;10.90;6.27;;;7.50;96.10;;;;;;4972270;28;20223;-76
2021/10/13 06:15:03;;;;;;;12.13;5.77;;;7.50;96.00;;;;;;4973043;28;20192;-78
2021/10/13 06:17:32;;;;;;;23.47;11.93;;;7.50;96.00;;;;;;4976811;28;20459;-78
2021/10/13 06:19:57;;;;;;;16.53;7.70;;;7.50;96.00;;;;;;4976244;28;20486;-78
2021/10/13 06:22:23;;;;;;;10.53;5.60;;;7.50;96.00;;;;;;4976976;28;20428;-77
2021/10/13 06:24:49;;;;;;;13.73;6.07;;;7.50;96.00;;;;;;4974942;28;20209;-78
2021/10/13 06:27:14;;;;;;;10.30;6.10;;;7.50;96.00;;;;;;4976011;28;20181;-77
2021/10/13 06:29:40;;;;;;;8.40;5.53;;;7.50;96.10;;;;;;4974019;28;20200;-77
2021/10/13 06:32:06;;;;;;;15.57;5.73;;;7.60;96.10;;;;;;4975399;28;20192;-77
2021/10/13 06:34:32;;;;;;;10.03;5.43;;;7.70;96.00;;;;;;4975753;28;20169;-77
2021/10/13 06:36:57;;;;;;;9.73;6.07;;;7.70;95.90;;;;;;4975206;28;20785;-76
2021/10/13 06:39:23;;;;;;;10.83;5.83;;;7.80;95.80;;;;;;4973666;28;20256;-76
2021/10/13 06:41:49;;;;;;;12.83;5.73;;;7.90;95.70;;;;;;4975335;28;20248;-78
2021/10/13 06:44:14;;;;;;;10.10;5.50;;;7.90;95.50;;;;;;4979023;28;20176;-77
2021/10/13 06:46:41;;;;;;;13.37;6.03;;;8.00;95.50;;;;;;4975789;28;20176;-77
2021/10/13 06:49:07;;;;;;;14.10;6.43;;;8.00;95.40;;;;;;4975269;28;20601;-77
2021/10/13 06:51:33;;;;;;;12.73;6.40;;;8.10;95.40;;;;;;4975099;28;20462;-77
2021/10/13 06:53:58;;;;;;;11.30;6.57;;;8.20;95.20;;;;;;4977554;28;20466;-77
2021/10/13 06:56:24;;;;;;;10.17;6.57;;;8.30;95.10;;;;;;4982745;28;21091;-77
2021/10/13 06:58:50;;;;;;;13.40;7.90;;;8.50;95.00;;;;;;4978293;28;20387;-77
2021/10/13 07:01:16;;;;;;;17.07;7.37;;;8.60;94.80;;;;;;4977531;28;20229;-77
2021/10/13 07:03:41;;;;;;;12.33;6.80;;;8.80;94.50;;;;;;4976143;28;20443;-77
2021/10/13 07:06:07;;;;;;;11.73;5.60;;;9.00;94.00;;;;;;4975009;28;20176;-77
2021/10/13 07:08:33;;;;;;;12.60;6.50;;;9.10;93.70;;;;;;4975161;28;20205;-76
2021/10/13 07:10:58;;;;;;;13.10;7.50;;;9.30;93.50;;;;;;4974796;28;20204;-77
2021/10/13 07:13:24;;;;;;;11.40;5.80;;;9.40;93.20;;;;;;4975206;28;20168;-77
2021/10/13 07:15:50;;;;;;;11.20;6.03;;;9.50;93.00;;;;;;4975348;28;20168;-77
2021/10/13 07:18:15;;;;;;;11.63;6.13;;;9.60;92.80;;;;;;4975150;28;20177;-78
2021/10/13 07:20:41;;;;;;;7.60;5.87;;;9.80;92.50;;;;;;4974291;28;20192;-77
2021/10/13 07:23:07;;;;;;;8.40;6.13;;;9.90;93.20;;;;;;4974263;28;20184;-76
2021/10/13 07:25:33;;;;;;;13.17;6.40;;;10.10;92.50;;;;;;4974817;28;20180;-77
2021/10/13 07:28:01;;;;;;;11.70;6.70;;;10.10;91.90;;;;;;4977507;28;20180;-78
2021/10/13 07:30:27;;;;;;;13.40;6.57;;;10.10;91.70;;;;;;4976126;28;20470;-77
2021/10/13 07:32:53;;;;;;;11.03;8.10;;;10.00;91.70;;;;;;4977207;28;20916;-77
2021/10/13 07:35:20;;;;;;;11.23;6.93;;;9.90;92.30;;;;;;4976690;28;20416;-77
2021/10/13 07:37:46;;;;;;;12.93;6.30;;;9.90;92.10;;;;;;4974885;28;20424;-77
2021/10/13 07:40:13;;;;;;;13.60;7.90;;;9.80;92.20;;;;;;4975741;28;20456;-77
2021/10/13 07:42:38;;;;;;;17.87;7.90;;;9.80;92.50;;;;;;4976704;28;20461;-78
2021/10/13 07:45:06;;;;;;;11.90;6.67;;;9.90;92.50;;;;;;4979128;28;20415;-78
2021/10/13 07:47:31;;;;;;;7.07;5.50;;;10.00;92.00;;;;;;4984209;28;20179;-77
2021/10/13 07:49:57;;;;;;;15.23;8.57;;;10.30;91.60;;;;;;4985142;28;20522;-77
2021/10/13 07:52:23;;;;;;;17.10;6.37;;;10.60;91.20;;;;;;4981359;28;20552;-76
2021/10/13 07:54:49;;;;;;;14.30;7.23;;;10.90;90.50;;;;;;4975663;28;21166;-78
2021/10/13 07:57:14;;;;;;;13.37;7.23;;;11.10;88.80;;;;;;4977350;28;20428;-77
2021/10/13 07:59:40;;;;;;;14.13;6.47;;;11.30;88.20;;;;;;4976469;28;20184;-77
2021/10/13 08:02:06;;;;;;;13.23;7.90;;;11.50;88.60;;;;;;4973331;28;20212;-77
2021/10/13 08:04:32;;;;;;;11.53;6.80;;;11.80;87.10;;;;;;4973344;28;20259;-77
2021/10/13 08:06:58;;;;;;;9.20;6.63;;;12.10;85.60;;;;;;4974836;28;20499;-77
2021/10/13 08:09:23;;;;;;;7.60;5.47;;;12.20;84.20;;;;;;4976464;28;20184;-77
2021/10/13 08:11:50;;;;;;;11.87;7.27;;;12.30;82.80;;;;;;4973993;28;20168;-77
2021/10/13 08:14:16;;;;;;;9.40;6.67;;;12.20;82.30;;;;;;4974556;28;20648;-78
2021/10/13 08:16:42;;;;;;;13.33;7.37;;;12.00;82.60;;;;;;4976151;28;20431;-78
2021/10/13 08:19:08;;;;;;;11.77;7.13;;;12.00;83.60;;;;;;4976023;28;20540;-77
2021/10/13 08:21:34;;;;;;;13.57;8.27;;;12.20;86.20;;;;;;4974596;28;20603;-77
2021/10/13 08:23:59;;;;;;;11.50;7.50;;;13.20;84.30;;;;;;4973353;28;20188;-77
2021/10/13 08:26:25;;;;;;;10.80;6.73;;;14.70;78.40;;;;;;4974080;28;20542;-79
2021/10/13 08:28:51;;;;;;;11.40;6.40;;;15.10;71.50;;;;;;4980800;28;20193;-78
2021/10/13 08:31:17;;;;;;;11.50;7.00;;;15.10;70.10;;;;;;4978890;28;20849;-77
2021/10/13 08:33:43;;;;;;;9.80;5.97;;;15.20;72.00;;;;;;4974927;28;20169;-81
2021/10/13 08:36:08;;;;;;;7.03;5.10;;;16.20;71.10;;;;;;4975357;28;20191;-77
2021/10/13 08:38:34;;;;;;;10.10;5.50;;;17.40;64.40;;;;;;4974996;28;20430;-77
2021/10/13 08:41:00;;;;;;;8.13;5.90;;;17.90;60.90;;;;;;4975845;28;20257;-78
2021/10/13 08:43:26;;;;;;;7.87;5.80;;;18.70;58.90;;;;;;4976169;28;20327;-77
2021/10/13 08:45:51;;;;;;;6.07;5.33;;;19.10;56.10;;;;;;4976704;28;20174;-78
2021/10/13 08:48:17;;;;;;;12.23;6.93;;;18.90;56.00;;;;;;4975241;28;20654;-78
2021/10/13 08:50:46;;;;;;;9.20;6.30;;;18.50;56.20;;;;;;4973575;28;20195;-78
2021/10/13 08:53:14;;;;;;;10.47;6.30;;;18.10;56.00;;;;;;4973232;28;20696;-78
2021/10/13 08:55:41;;;;;;;8.87;6.03;;;17.50;57.70;;;;;;4974789;28;20418;-78
2021/10/13 08:58:16;;;;;;;11.40;6.33;;;17.10;59.60;;;;;;4975108;28;20415;-78
2021/10/13 09:00:44;;;;;;;10.17;6.73;;;17.00;59.20;;;;;;4974351;28;20529;-78
2021/10/13 09:03:29;;;;;;;13.17;6.80;;;16.70;60.10;;;;;;4974786;28;20426;-78
2021/10/13 09:05:56;;;;;;;7.60;5.90;;;16.80;60.50;;;;;;4973595;28;20469;-78
2021/10/13 09:08:21;;;;;;;10.53;6.47;;;17.30;59.80;;;;;;4978158;28;20422;-78
2021/10/13 09:10:47;;;;;;;7.10;5.90;;;17.60;59.20;;;;;;4959820;28;20481;-78
2021/10/13 09:13:15;;;;;;;9.80;5.73;;;17.70;57.50;;;;;;4975047;28;20179;-79
2021/10/13 09:15:47;;;;;;;7.93;5.73;;;17.70;58.70;;;;;;4975001;28;20176;-78
2021/10/13 09:18:14;;;;;;;88.23;47.23;;;17.70;58.50;;;;;;4974465;28;20429;-79
2021/10/13 09:20:41;;;;;;;11.63;7.03;;;17.50;58.30;;;;;;4974104;28;20438;-78
2021/10/13 09:23:16;;;;;;;10.50;6.47;;;17.30;58.30;;;;;;4973117;28;20473;-78
2021/10/13 09:25:59;;;;;;;23.60;7.20;;;16.80;59.00;;;;;;4972757;28;20428;-77
2021/10/13 09:28:24;;;;;;;16.07;8.37;;;16.40;60.90;;;;;;4974431;28;20779;-78
2021/10/13 09:30:50;;;;;;;8.30;6.47;;;16.20;62.80;;;;;;4974035;28;20490;-78
2021/10/13 09:33:18;;;;;;;12.77;6.50;;;16.30;64.70;;;;;;4974666;28;20261;-80
2021/10/13 09:35:43;;;;;;;9.47;6.60;;;16.60;62.70;;;;;;4973898;28;20193;-78
2021/10/13 09:38:13;;;;;;;12.10;6.80;;;16.60;62.00;;;;;;4974099;28;20914;-78
2021/10/13 09:40:39;;;;;;;13.07;6.70;;;16.50;62.20;;;;;;4972827;28;20236;-79
2021/10/13 09:43:05;;;;;;;8.00;5.80;;;16.20;62.00;;;;;;4973984;28;20419;-79
2021/10/13 09:45:33;;;;;;;10.53;5.70;;;16.50;62.50;;;;;;4956457;28;20180;-78
2021/10/13 09:48:04;;;;;;;10.57;5.87;;;16.60;61.40;;;;;;4973407;28;20172;-78
2021/10/13 09:50:57;;;;;;;8.60;6.23;;;16.60;61.90;;;;;;4972893;28;20506;-77
2021/10/13 09:53:28;;;;;;;13.63;7.87;;;16.60;59.70;;;;;;4971102;28;20428;-78
2021/10/13 09:55:54;;;;;;;6.80;5.23;;;16.70;61.20;;;;;;4972800;28;21176;-78
2021/10/13 09:58:37;;;;;;;11.97;5.83;;;17.60;60.40;;;;;;4973453;28;20419;-78
2021/10/13 10:01:13;;;;;;;8.23;5.70;;;18.50;58.00;;;;;;4973137;28;20418;-78
2021/10/13 10:03:45;;;;;;;11.30;5.27;;;19.00;55.10;;;;;;4973209;28;20419;-78
2021/10/13 10:06:11;;;;;;;7.17;4.63;;;18.70;55.00;;;;;;4973731;28;20518;-77
2021/10/13 10:08:56;;;;;;;13.23;5.37;;;18.30;55.60;;;;;;4974369;28;20485;-78
2021/10/13 10:11:34;;;;;;;7.10;5.00;;;18.10;57.70;;;;;;4972106;28;20494;-78
2021/10/13 10:14:04;;;;;;;10.47;4.53;;;18.30;57.00;;;;;;4973866;28;20754;-78
2021/10/13 10:16:38;;;;;;;8.53;5.77;;;18.90;55.50;;;;;;4957396;28;20474;-78
2021/10/13 10:19:19;;;;;;;6.70;4.57;;;19.10;55.00;;;;;;4955474;28;20443;-78
2021/10/13 10:21:52;;;;;;;10.33;5.17;;;19.20;52.90;;;;;;4975246;28;20900;-79
2021/10/13 10:24:24;;;;;;;11.20;5.23;;;18.60;54.60;;;;;;4972213;28;20422;-77
2021/10/13 10:26:50;;;;;;;11.83;4.80;;;17.70;56.00;;;;;;4974717;28;20419;-78
2021/10/13 10:29:16;;;;;;;5.80;4.57;;;17.00;57.70;;;;;;4973901;28;20514;-79
2021/10/13 10:32:12;;;;;;;11.40;5.30;;;16.50;60.60;;;;;;4972673;28;20232;-77
2021/10/13 10:34:38;;;;;;;14.23;4.90;;;16.30;62.60;;;;;;4973809;28;20435;-78
2021/10/13 10:37:04;;;;;;;9.37;5.37;;;16.20;62.70;;;;;;4972322;28;20910;-77
2021/10/13 10:39:52;;;;;;;13.80;5.00;;;16.00;63.70;;;;;;4973679;28;20192;-78
2021/10/13 10:42:50;;;;;;;10.40;5.93;;;15.90;64.90;;;;;;4975629;28;20181;-78
2021/10/13 10:45:18;;;;;;;9.37;4.40;;;15.80;64.20;;;;;;4977963;28;20842;-78
2021/10/13 10:47:50;;;;;;;12.63;4.60;;;15.60;63.80;;;;;;4978955;28;20416;-78
2021/10/13 10:50:38;;;;;;;6.70;3.57;;;15.50;65.50;;;;;;4976630;28;20499;-79
2021/10/13 10:53:36;;;;;;;6.60;3.50;;;15.60;65.60;;;;;;4981866;28;20412;-77
2021/10/13 10:56:22;;;;;;;9.17;4.10;;;15.70;65.40;;;;;;4968828;28;20455;-77
2021/10/13 10:59:02;;;;;;;8.33;4.37;;;15.70;65.90;;;;;;4976668;28;20439;-78
2021/10/13 11:01:28;;;;;;;6.77;3.73;;;15.50;66.10;;;;;;4981077;28;20499;-78
2021/10/13 11:03:54;;;;;;;7.20;3.77;;;15.20;66.70;;;;;;4960172;28;20459;-77
2021/10/13 11:06:24;;;;;;;6.13;4.40;;;15.00;67.80;;;;;;4978521;28;20175;-78
2021/10/13 11:09:09;;;;;;;10.30;4.73;;;14.80;68.60;;;;;;4977997;28;20439;-78
2021/10/13 11:11:45;;;;;;;9.07;3.60;;;14.80;69.70;;;;;;4977927;28;20543;-77
2021/10/13 11:14:16;;;;;;;8.73;4.40;;;14.80;71.00;;;;;;4981456;28;20427;-77
2021/10/13 11:16:51;;;;;;;9.43;3.97;;;15.00;70.40;;;;;;4988464;28;20474;-77
2021/10/13 11:19:20;;;;;;;5.33;2.70;;;15.20;69.60;;;;;;4985556;28;20546;-77
2021/10/13 11:21:53;;;;;;;6.23;3.50;;;15.40;67.70;;;;;;4978603;28;20416;-79
2021/10/13 11:24:18;;;;;;;8.73;3.90;;;15.50;67.30;;;;;;4980625;28;20420;-79
2021/10/13 11:26:44;;;;;;;7.73;3.37;;;15.60;66.20;;;;;;4977632;28;20421;-78
2021/10/13 11:29:37;;;;;;;5.57;3.33;;;15.70;66.40;;;;;;4982308;28;20699;-78
2021/10/13 11:32:11;;;;;;;6.97;3.23;;;15.70;65.90;;;;;;4973750;28;20184;-78
2021/10/13 11:34:38;;;;;;;6.77;3.27;;;15.70;65.30;;;;;;4975221;28;20399;-76
2021/10/13 11:37:04;;;;;;;8.83;2.87;;;15.70;65.30;;;;;;4977658;28;20395;-79
2021/10/13 11:39:33;;;;;;;7.07;3.30;;;15.60;65.60;;;;;;4963801;28;20532;-78
2021/10/13 11:41:59;;;;;;;5.90;2.73;;;15.40;66.70;;;;;;4977523;28;21195;-79
2021/10/13 11:44:27;;;;;;;10.77;3.53;;;15.30;66.20;;;;;;4977139;28;20976;-77
2021/10/13 11:46:58;;;;;;;8.90;3.40;;;15.20;66.70;;;;;;4978956;28;20428;-78
2021/10/13 11:49:24;;;;;;;5.40;3.43;;;15.00;68.20;;;;;;4980990;28;20424;-77
2021/10/13 11:52:10;;;;;;;5.43;3.10;;;14.80;69.40;;;;;;4975500;28;20426;-78
2021/10/13 11:54:36;;;;;;;6.77;2.70;;;14.50;69.70;;;;;;4977326;28;20400;-77
2021/10/13 11:57:03;;;;;;;6.77;3.00;;;14.20;71.20;;;;;;4975315;28;20401;-78
2021/10/13 11:59:29;;;;;;;5.33;2.80;;;14.00;72.50;;;;;;4977401;28;20226;-78
2021/10/13 12:01:54;;;;;;;4.07;1.90;;;13.80;74.10;;;;;;4979983;28;20480;-78
2021/10/13 12:04:20;;;;;;;3.87;1.83;;;13.70;75.40;;;;;;4979426;28;20426;-77
2021/10/13 12:06:46;;;;;;;12.23;4.03;;;13.60;76.20;;;;;;4976209;28;20263;-78
2021/10/13 12:09:11;;;;;;;6.50;2.80;;;13.60;77.60;;;;;;4976135;28;20257;-77
2021/10/13 12:11:40;;;;;;;5.50;2.13;;;13.70;78.00;;;;;;4975764;28;20298;-77
2021/10/13 12:14:14;;;;;;;4.83;2.63;;;13.80;78.90;;;;;;4975222;28;20177;-77
2021/10/13 12:16:41;;;;;;;5.90;2.80;;;14.00;80.80;;;;;;4979190;28;20774;-78
2021/10/13 12:19:14;;;;;;;7.17;3.00;;;14.00;79.70;;;;;;4979152;28;20446;-78
2021/10/13 12:22:01;;;;;;;6.90;2.53;;;14.10;80.00;;;;;;4979160;28;20420;-76
2021/10/13 12:24:27;;;;;;;8.87;3.33;;;14.00;79.40;;;;;;4975306;28;20988;-77
2021/10/13 12:26:53;;;;;;;5.07;1.80;;;14.00;79.10;;;;;;4975515;28;20432;-78
2021/10/13 12:29:19;;;;;;;5.17;1.93;;;13.90;78.90;;;;;;4976158;28;20192;-77
2021/10/13 12:31:45;;;;;;;6.93;2.43;;;13.90;79.30;;;;;;4974949;28;20200;-78
2021/10/13 12:34:15;;;;;;;4.50;2.23;;;14.00;78.90;;;;;;4979242;28;20192;-78
2021/10/13 12:36:54;;;;;;;6.70;2.37;;;14.10;78.80;;;;;;4974344;28;20431;-77
2021/10/13 12:39:33;;;;;;;9.10;2.10;;;14.20;77.90;;;;;;4975392;28;20455;-77
2021/10/13 12:42:08;;;;;;;4.80;2.00;;;14.40;77.80;;;;;;4976143;28;20415;-77
2021/10/13 12:44:34;;;;;;;10.77;4.40;;;14.60;75.20;;;;;;4976416;28;20395;-78
2021/10/13 12:47:20;;;;;;;4.17;2.20;;;14.70;74.70;;;;;;4976058;28;20781;-77
2021/10/13 12:49:54;;;;;;;4.70;2.50;;;14.80;72.50;;;;;;4976952;28;20434;-78
2021/10/13 12:52:20;;;;;;;7.20;2.20;;;14.90;71.80;;;;;;4976955;28;20403;-78
2021/10/13 12:54:48;;;;;;;5.50;2.77;;;15.00;71.60;;;;;;4975192;28;20451;-78
2021/10/13 12:57:21;;;;;;;6.33;2.47;;;15.20;71.10;;;;;;4978173;28;20216;-78